sensor_id;sensor_type;location;lat;lon;timestamp;P1;durP1;ratioP1;P2;durP2;ratioP2
41077;SDS011;26823;42.662;23.352;2022-09-12T00:01:51;4.50;;;3.45;;
41077;SDS011;26823;42.662;23.352;2022-09-12T00:04:16;4.10;;;2.80;;
41077;SDS011;26823;42.662;23.352;2022-09-12T00:06:42;3.40;;;3.10;;
41077;SDS011;26823;42.662;23.352;2022-09-12T00:09:09;3.30;;;2.97;;
41077;SDS011;26823;42.662;23.352;2022-09-12T00:11:39;3.75;;;3.28;;
41077;SDS011;26823;42.662;23.352;2022-09-12T00:14:08;3.67;;;3.38;;
41077;SDS011;26823;42.662;23.352;2022-09-12T00:16:35;3.45;;;3.08;;
41077;SDS011;26823;42.662;23.352;2022-09-12T00:19:02;3.97;;;3.58;;
41077;SDS011;26823;42.662;23.352;2022-09-12T00:21:31;3.97;;;3.58;;
41077;SDS011;26823;42.662;23.352;2022-09-12T00:23:57;3.50;;;3.20;;
41077;SDS011;26823;42.662;23.352;2022-09-12T00:26:22;3.30;;;3.03;;
41077;SDS011;26823;42.662;23.352;2022-09-12T00:28:48;4.90;;;3.95;;
41077;SDS011;26823;42.662;23.352;2022-09-12T00:31:16;3.25;;;3.00;;
41077;SDS011;26823;42.662;23.352;2022-09-12T00:33:43;3.70;;;3.40;;
41077;SDS011;26823;42.662;23.352;2022-09-12T00:36:10;3.65;;;3.35;;
41077;SDS011;26823;42.662;23.352;2022-09-12T00:38:41;4.85;;;3.75;;
41077;SDS011;26823;42.662;23.352;2022-09-12T00:41:13;4.40;;;4.00;;
41077;SDS011;26823;42.662;23.352;2022-09-12T00:43:51;3.35;;;3.08;;
41077;SDS011;26823;42.662;23.352;2022-09-12T00:46:30;3.72;;;3.42;;
41077;SDS011;26823;42.662;23.352;2022-09-12T00:49:10;3.65;;;3.35;;
41077;SDS011;26823;42.662;23.352;2022-09-12T00:51:47;3.80;;;3.20;;
41077;SDS011;26823;42.662;23.352;2022-09-12T00:54:38;3.60;;;3.22;;
41077;SDS011;26823;42.662;23.352;2022-09-12T00:57:09;4.47;;;3.90;;
41077;SDS011;26823;42.662;23.352;2022-09-12T01:02:38;4.13;;;3.50;;
41077;SDS011;26823;42.662;23.352;2022-09-12T01:05:06;4.13;;;3.72;;
41077;SDS011;26823;42.662;23.352;2022-09-12T01:07:33;4.55;;;3.60;;
41077;SDS011;26823;42.662;23.352;2022-09-12T01:10:00;4.25;;;3.20;;
41077;SDS011;26823;42.662;23.352;2022-09-12T01:12:26;4.90;;;3.40;;
41077;SDS011;26823;42.662;23.352;2022-09-12T01:14:53;3.45;;;2.83;;
41077;SDS011;26823;42.662;23.352;2022-09-12T01:17:18;3.70;;;3.40;;
41077;SDS011;26823;42.662;23.352;2022-09-12T01:22:59;3.75;;;3.38;;
41077;SDS011;26823;42.662;23.352;2022-09-12T01:25:30;3.63;;;3.00;;
41077;SDS011;26823;42.662;23.352;2022-09-12T01:28:36;6.43;;;3.20;;
41077;SDS011;26823;42.662;23.352;2022-09-12T01:31:43;3.35;;;3.05;;
41077;SDS011;26823;42.662;23.352;2022-09-12T01:34:22;3.10;;;2.80;;
41077;SDS011;26823;42.662;23.352;2022-09-12T01:39:38;3.30;;;3.00;;
41077;SDS011;26823;42.662;23.352;2022-09-12T01:42:23;3.15;;;2.70;;
41077;SDS011;26823;42.662;23.352;2022-09-12T01:45:33;2.78;;;2.55;;
41077;SDS011;26823;42.662;23.352;2022-09-12T01:50:22;3.00;;;2.70;;
41077;SDS011;26823;42.662;23.352;2022-09-12T01:53:02;2.88;;;2.58;;
41077;SDS011;26823;42.662;23.352;2022-09-12T01:55:30;3.70;;;2.65;;
41077;SDS011;26823;42.662;23.352;2022-09-12T01:58:07;2.63;;;2.42;;
41077;SDS011;26823;42.662;23.352;2022-09-12T02:00:39;3.50;;;2.58;;
41077;SDS011;26823;42.662;23.352;2022-09-12T02:03:17;3.13;;;2.83;;
41077;SDS011;26823;42.662;23.352;2022-09-12T02:05:52;2.97;;;2.67;;
41077;SDS011;26823;42.662;23.352;2022-09-12T02:08:26;2.65;;;2.45;;
41077;SDS011;26823;42.662;23.352;2022-09-12T02:11:07;5.03;;;2.70;;
41077;SDS011;26823;42.662;23.352;2022-09-12T02:16:08;2.80;;;2.42;;
41077;SDS011;26823;42.662;23.352;2022-09-12T02:18:38;3.42;;;2.75;;
41077;SDS011;26823;42.662;23.352;2022-09-12T02:21:08;2.72;;;2.50;;
41077;SDS011;26823;42.662;23.352;2022-09-12T02:23:36;2.88;;;2.50;;
41077;SDS011;26823;42.662;23.352;2022-09-12T02:26:07;3.15;;;2.85;;
41077;SDS011;26823;42.662;23.352;2022-09-12T02:28:40;2.72;;;2.50;;
41077;SDS011;26823;42.662;23.352;2022-09-12T02:31:27;3.08;;;2.78;;
41077;SDS011;26823;42.662;23.352;2022-09-12T02:36:58;4.32;;;3.50;;
41077;SDS011;26823;42.662;23.352;2022-09-12T02:39:18;3.67;;;2.42;;
41077;SDS011;26823;42.662;23.352;2022-09-12T02:41:51;3.25;;;2.55;;
41077;SDS011;26823;42.662;23.352;2022-09-12T02:44:19;2.78;;;2.50;;
41077;SDS011;26823;42.662;23.352;2022-09-12T02:46:47;2.08;;;1.95;;
41077;SDS011;26823;42.662;23.352;2022-09-12T02:49:16;2.08;;;1.90;;
41077;SDS011;26823;42.662;23.352;2022-09-12T02:51:42;2.53;;;2.33;;
41077;SDS011;26823;42.662;23.352;2022-09-12T02:54:09;2.10;;;1.90;;
41077;SDS011;26823;42.662;23.352;2022-09-12T02:56:39;2.42;;;2.22;;
41077;SDS011;26823;42.662;23.352;2022-09-12T02:59:06;2.58;;;2.38;;
41077;SDS011;26823;42.662;23.352;2022-09-12T03:06:51;2.37;;;2.17;;
41077;SDS011;26823;42.662;23.352;2022-09-12T03:09:56;2.17;;;1.98;;
41077;SDS011;26823;42.662;23.352;2022-09-12T03:26:02;3.92;;;2.63;;
41077;SDS011;26823;42.662;23.352;2022-09-12T03:30:59;2.70;;;2.45;;
41077;SDS011;26823;42.662;23.352;2022-09-12T03:33:31;2.63;;;2.38;;
41077;SDS011;26823;42.662;23.352;2022-09-12T03:35:57;3.38;;;2.53;;
41077;SDS011;26823;42.662;23.352;2022-09-12T03:38:22;2.88;;;2.35;;
41077;SDS011;26823;42.662;23.352;2022-09-12T03:40:48;2.40;;;2.20;;
41077;SDS011;26823;42.662;23.352;2022-09-12T03:43:13;3.20;;;2.83;;
41077;SDS011;26823;42.662;23.352;2022-09-12T03:45:38;2.63;;;2.33;;
41077;SDS011;26823;42.662;23.352;2022-09-12T03:48:04;5.00;;;2.45;;
41077;SDS011;26823;42.662;23.352;2022-09-12T03:50:30;2.78;;;2.58;;
41077;SDS011;26823;42.662;23.352;2022-09-12T03:52:57;3.58;;;3.28;;
41077;SDS011;26823;42.662;23.352;2022-09-12T03:55:23;2.67;;;2.47;;
41077;SDS011;26823;42.662;23.352;2022-09-12T03:57:51;2.50;;;2.30;;
41077;SDS011;26823;42.662;23.352;2022-09-12T04:00:17;2.15;;;1.95;;
41077;SDS011;26823;42.662;23.352;2022-09-12T04:02:42;4.00;;;2.58;;
41077;SDS011;26823;42.662;23.352;2022-09-12T04:05:08;4.43;;;2.70;;
41077;SDS011;26823;42.662;23.352;2022-09-12T04:07:33;2.78;;;2.42;;
41077;SDS011;26823;42.662;23.352;2022-09-12T04:09:59;2.75;;;2.55;;
41077;SDS011;26823;42.662;23.352;2022-09-12T04:12:24;2.85;;;2.20;;
41077;SDS011;26823;42.662;23.352;2022-09-12T04:14:49;2.47;;;2.22;;
41077;SDS011;26823;42.662;23.352;2022-09-12T04:17:15;2.28;;;2.08;;
41077;SDS011;26823;42.662;23.352;2022-09-12T04:19:40;3.28;;;2.40;;
41077;SDS011;26823;42.662;23.352;2022-09-12T04:22:06;3.25;;;2.65;;
41077;SDS011;26823;42.662;23.352;2022-09-12T04:24:31;2.97;;;2.47;;
41077;SDS011;26823;42.662;23.352;2022-09-12T04:26:57;2.58;;;2.30;;
41077;SDS011;26823;42.662;23.352;2022-09-12T04:29:22;2.80;;;2.60;;
41077;SDS011;26823;42.662;23.352;2022-09-12T04:31:48;2.90;;;2.60;;
41077;SDS011;26823;42.662;23.352;2022-09-12T04:34:13;2.40;;;2.20;;
41077;SDS011;26823;42.662;23.352;2022-09-12T04:36:39;3.17;;;2.88;;
41077;SDS011;26823;42.662;23.352;2022-09-12T04:39:05;3.83;;;3.10;;
41077;SDS011;26823;42.662;23.352;2022-09-12T04:41:35;3.33;;;2.80;;
41077;SDS011;26823;42.662;23.352;2022-09-12T04:44:03;3.13;;;2.38;;
41077;SDS011;26823;42.662;23.352;2022-09-12T04:46:33;3.67;;;2.92;;
41077;SDS011;26823;42.662;23.352;2022-09-12T04:49:00;4.50;;;2.90;;
41077;SDS011;26823;42.662;23.352;2022-09-12T04:51:28;3.22;;;2.88;;
41077;SDS011;26823;42.662;23.352;2022-09-12T04:53:56;3.45;;;3.10;;
41077;SDS011;26823;42.662;23.352;2022-09-12T04:56:24;6.15;;;2.97;;
41077;SDS011;26823;42.662;23.352;2022-09-12T04:58:51;6.50;;;4.05;;
41077;SDS011;26823;42.662;23.352;2022-09-12T05:01:17;3.65;;;3.35;;
41077;SDS011;26823;42.662;23.352;2022-09-12T05:03:44;5.45;;;3.65;;
41077;SDS011;26823;42.662;23.352;2022-09-12T05:06:12;4.20;;;3.40;;
41077;SDS011;26823;42.662;23.352;2022-09-12T05:08:39;3.58;;;3.10;;
41077;SDS011;26823;42.662;23.352;2022-09-12T05:11:15;4.60;;;2.90;;
41077;SDS011;26823;42.662;23.352;2022-09-12T05:13:42;4.43;;;2.88;;
41077;SDS011;26823;42.662;23.352;2022-09-12T05:16:09;3.35;;;3.03;;
41077;SDS011;26823;42.662;23.352;2022-09-12T05:18:36;3.10;;;2.80;;
41077;SDS011;26823;42.662;23.352;2022-09-12T05:21:03;2.75;;;2.55;;
41077;SDS011;26823;42.662;23.352;2022-09-12T05:23:31;2.75;;;2.55;;
41077;SDS011;26823;42.662;23.352;2022-09-12T05:25:58;3.35;;;2.92;;
41077;SDS011;26823;42.662;23.352;2022-09-12T05:28:24;4.15;;;2.80;;
41077;SDS011;26823;42.662;23.352;2022-09-12T05:31:03;3.25;;;2.80;;
41077;SDS011;26823;42.662;23.352;2022-09-12T05:33:29;2.75;;;2.50;;
41077;SDS011;26823;42.662;23.352;2022-09-12T05:35:56;4.25;;;2.33;;
41077;SDS011;26823;42.662;23.352;2022-09-12T05:38:22;3.53;;;2.50;;
41077;SDS011;26823;42.662;23.352;2022-09-12T05:40:52;2.80;;;2.50;;
41077;SDS011;26823;42.662;23.352;2022-09-12T05:43:25;3.03;;;2.40;;
41077;SDS011;26823;42.662;23.352;2022-09-12T05:45:50;3.33;;;3.03;;
41077;SDS011;26823;42.662;23.352;2022-09-12T05:48:15;4.80;;;2.53;;
41077;SDS011;26823;42.662;23.352;2022-09-12T05:50:41;2.80;;;2.50;;
41077;SDS011;26823;42.662;23.352;2022-09-12T05:53:06;3.70;;;2.67;;
41077;SDS011;26823;42.662;23.352;2022-09-12T05:55:32;3.15;;;2.38;;
41077;SDS011;26823;42.662;23.352;2022-09-12T05:57:58;2.75;;;2.53;;
41077;SDS011;26823;42.662;23.352;2022-09-12T06:00:23;2.83;;;2.53;;
41077;SDS011;26823;42.662;23.352;2022-09-12T06:02:51;5.22;;;2.70;;
41077;SDS011;26823;42.662;23.352;2022-09-12T06:05:17;2.95;;;2.75;;
41077;SDS011;26823;42.662;23.352;2022-09-12T06:07:44;4.35;;;3.20;;
41077;SDS011;26823;42.662;23.352;2022-09-12T06:10:10;11.65;;;2.42;;
41077;SDS011;26823;42.662;23.352;2022-09-12T06:12:36;3.15;;;2.85;;
41077;SDS011;26823;42.662;23.352;2022-09-12T06:15:01;3.30;;;2.72;;
41077;SDS011;26823;42.662;23.352;2022-09-12T06:17:27;3.58;;;2.50;;
41077;SDS011;26823;42.662;23.352;2022-09-12T06:19:53;3.30;;;3.00;;
41077;SDS011;26823;42.662;23.352;2022-09-12T06:22:19;3.33;;;3.08;;
41077;SDS011;26823;42.662;23.352;2022-09-12T06:24:45;3.38;;;3.08;;
41077;SDS011;26823;42.662;23.352;2022-09-12T06:27:10;3.35;;;2.95;;
41077;SDS011;26823;42.662;23.352;2022-09-12T06:29:35;3.45;;;3.15;;
41077;SDS011;26823;42.662;23.352;2022-09-12T06:32:01;4.18;;;2.78;;
41077;SDS011;26823;42.662;23.352;2022-09-12T06:34:26;3.22;;;2.92;;
41077;SDS011;26823;42.662;23.352;2022-09-12T06:36:52;3.55;;;3.25;;
41077;SDS011;26823;42.662;23.352;2022-09-12T06:39:21;3.50;;;3.20;;
41077;SDS011;26823;42.662;23.352;2022-09-12T06:41:48;4.63;;;3.00;;
41077;SDS011;26823;42.662;23.352;2022-09-12T06:44:16;2.92;;;2.72;;
41077;SDS011;26823;42.662;23.352;2022-09-12T06:46:43;4.45;;;3.03;;
41077;SDS011;26823;42.662;23.352;2022-09-12T06:49:09;3.55;;;3.25;;
41077;SDS011;26823;42.662;23.352;2022-09-12T06:51:34;3.20;;;2.90;;
41077;SDS011;26823;42.662;23.352;2022-09-12T06:54:00;3.80;;;2.90;;
41077;SDS011;26823;42.662;23.352;2022-09-12T06:56:26;6.13;;;3.13;;
41077;SDS011;26823;42.662;23.352;2022-09-12T06:58:52;3.45;;;3.15;;
41077;SDS011;26823;42.662;23.352;2022-09-12T07:01:24;2.92;;;2.72;;
41077;SDS011;26823;42.662;23.352;2022-09-12T07:03:58;3.17;;;2.90;;
41077;SDS011;26823;42.662;23.352;2022-09-12T07:06:26;3.47;;;3.17;;
41077;SDS011;26823;42.662;23.352;2022-09-12T07:09:01;3.55;;;3.22;;
41077;SDS011;26823;42.662;23.352;2022-09-12T07:11:31;3.47;;;3.13;;
41077;SDS011;26823;42.662;23.352;2022-09-12T07:13:59;3.58;;;3.28;;
41077;SDS011;26823;42.662;23.352;2022-09-12T07:16:26;3.95;;;3.17;;
41077;SDS011;26823;42.662;23.352;2022-09-12T07:19:01;3.63;;;3.33;;
41077;SDS011;26823;42.662;23.352;2022-09-12T07:21:28;3.63;;;2.97;;
41077;SDS011;26823;42.662;23.352;2022-09-12T07:23:54;5.95;;;3.20;;
41077;SDS011;26823;42.662;23.352;2022-09-12T07:26:22;3.38;;;3.08;;
41077;SDS011;26823;42.662;23.352;2022-09-12T07:28:51;3.60;;;3.30;;
41077;SDS011;26823;42.662;23.352;2022-09-12T07:31:22;4.22;;;2.90;;
41077;SDS011;26823;42.662;23.352;2022-09-12T07:33:48;4.35;;;3.00;;
41077;SDS011;26823;42.662;23.352;2022-09-12T07:36:15;3.50;;;3.20;;
41077;SDS011;26823;42.662;23.352;2022-09-12T07:38:42;3.42;;;3.13;;
41077;SDS011;26823;42.662;23.352;2022-09-12T07:41:12;3.55;;;3.25;;
41077;SDS011;26823;42.662;23.352;2022-09-12T07:43:38;4.07;;;3.63;;
41077;SDS011;26823;42.662;23.352;2022-09-12T07:46:05;3.85;;;3.55;;
41077;SDS011;26823;42.662;23.352;2022-09-12T07:48:32;4.00;;;3.60;;
41077;SDS011;26823;42.662;23.352;2022-09-12T07:51:01;6.07;;;3.78;;
41077;SDS011;26823;42.662;23.352;2022-09-12T07:53:30;3.85;;;3.53;;
41077;SDS011;26823;42.662;23.352;2022-09-12T07:55:57;4.97;;;3.38;;
41077;SDS011;26823;42.662;23.352;2022-09-12T07:58:23;3.22;;;3.00;;
41077;SDS011;26823;42.662;23.352;2022-09-12T08:00:48;3.60;;;3.30;;
41077;SDS011;26823;42.662;23.352;2022-09-12T08:03:14;4.15;;;3.75;;
41077;SDS011;26823;42.662;23.352;2022-09-12T08:05:40;3.70;;;3.42;;
41077;SDS011;26823;42.662;23.352;2022-09-12T08:08:05;3.55;;;3.25;;
41077;SDS011;26823;42.662;23.352;2022-09-12T08:10:31;3.67;;;3.20;;
41077;SDS011;26823;42.662;23.352;2022-09-12T08:12:56;4.93;;;3.92;;
41077;SDS011;26823;42.662;23.352;2022-09-12T08:15:22;3.03;;;2.80;;
41077;SDS011;26823;42.662;23.352;2022-09-12T08:17:48;3.10;;;2.80;;
41077;SDS011;26823;42.662;23.352;2022-09-12T08:20:14;3.40;;;3.10;;
41077;SDS011;26823;42.662;23.352;2022-09-12T08:22:39;3.42;;;3.17;;
41077;SDS011;26823;42.662;23.352;2022-09-12T08:25:05;3.15;;;2.80;;
41077;SDS011;26823;42.662;23.352;2022-09-12T08:27:32;3.53;;;3.22;;
41077;SDS011;26823;42.662;23.352;2022-09-12T08:29:58;3.22;;;2.90;;
41077;SDS011;26823;42.662;23.352;2022-09-12T08:32:24;3.13;;;2.78;;
41077;SDS011;26823;42.662;23.352;2022-09-12T08:34:49;2.70;;;2.50;;
41077;SDS011;26823;42.662;23.352;2022-09-12T08:37:15;3.00;;;2.80;;
41077;SDS011;26823;42.662;23.352;2022-09-12T08:39:40;2.78;;;2.58;;
41077;SDS011;26823;42.662;23.352;2022-09-12T08:42:08;2.58;;;2.38;;
41077;SDS011;26823;42.662;23.352;2022-09-12T08:44:57;2.85;;;2.65;;
41077;SDS011;26823;42.662;23.352;2022-09-12T08:47:31;3.35;;;2.70;;
41077;SDS011;26823;42.662;23.352;2022-09-12T08:50:00;2.45;;;2.25;;
41077;SDS011;26823;42.662;23.352;2022-09-12T08:52:28;4.35;;;2.90;;
41077;SDS011;26823;42.662;23.352;2022-09-12T08:54:57;3.00;;;2.80;;
41077;SDS011;26823;42.662;23.352;2022-09-12T08:57:25;2.30;;;2.15;;
41077;SDS011;26823;42.662;23.352;2022-09-12T08:59:51;3.20;;;2.80;;
41077;SDS011;26823;42.662;23.352;2022-09-12T09:05:17;2.60;;;2.40;;
41077;SDS011;26823;42.662;23.352;2022-09-12T09:13:52;2.67;;;2.47;;
41077;SDS011;26823;42.662;23.352;2022-09-12T09:18:45;3.40;;;3.10;;
41077;SDS011;26823;42.662;23.352;2022-09-12T09:23:56;3.00;;;2.75;;
41077;SDS011;26823;42.662;23.352;2022-09-12T09:29:17;3.03;;;2.63;;
41077;SDS011;26823;42.662;23.352;2022-09-12T09:31:47;3.58;;;3.28;;
41077;SDS011;26823;42.662;23.352;2022-09-12T09:34:20;3.63;;;3.33;;
41077;SDS011;26823;42.662;23.352;2022-09-12T09:44:52;3.25;;;2.88;;
41077;SDS011;26823;42.662;23.352;2022-09-12T09:47:20;3.55;;;3.25;;
41077;SDS011;26823;42.662;23.352;2022-09-12T09:49:45;3.03;;;2.83;;
41077;SDS011;26823;42.662;23.352;2022-09-12T09:52:13;3.30;;;3.00;;
41077;SDS011;26823;42.662;23.352;2022-09-12T10:00:41;3.47;;;3.17;;
41077;SDS011;26823;42.662;23.352;2022-09-12T10:02:57;4.80;;;3.03;;
41077;SDS011;26823;42.662;23.352;2022-09-12T10:05:24;3.60;;;3.17;;
41077;SDS011;26823;42.662;23.352;2022-09-12T10:07:49;2.88;;;2.67;;
41077;SDS011;26823;42.662;23.352;2022-09-12T10:10:16;3.03;;;2.83;;
41077;SDS011;26823;42.662;23.352;2022-09-12T10:12:46;3.63;;;2.90;;
41077;SDS011;26823;42.662;23.352;2022-09-12T10:15:17;3.25;;;2.97;;
41077;SDS011;26823;42.662;23.352;2022-09-12T10:17:45;4.03;;;2.95;;
41077;SDS011;26823;42.662;23.352;2022-09-12T10:20:35;3.42;;;3.13;;
41077;SDS011;26823;42.662;23.352;2022-09-12T10:23:17;3.28;;;2.95;;
41077;SDS011;26823;42.662;23.352;2022-09-12T10:25:53;3.90;;;3.50;;
41077;SDS011;26823;42.662;23.352;2022-09-12T10:28:32;3.38;;;3.08;;
41077;SDS011;26823;42.662;23.352;2022-09-12T10:31:03;3.53;;;3.22;;
41077;SDS011;26823;42.662;23.352;2022-09-12T10:33:30;3.65;;;3.35;;
41077;SDS011;26823;42.662;23.352;2022-09-12T10:36:04;4.38;;;3.85;;
41077;SDS011;26823;42.662;23.352;2022-09-12T10:38:31;3.45;;;3.17;;
41077;SDS011;26823;42.662;23.352;2022-09-12T10:41:01;4.30;;;3.92;;
41077;SDS011;26823;42.662;23.352;2022-09-12T10:46:20;4.40;;;4.00;;
41077;SDS011;26823;42.662;23.352;2022-09-12T10:52:15;3.75;;;3.35;;
41077;SDS011;26823;42.662;23.352;2022-09-12T10:54:44;5.40;;;3.10;;
41077;SDS011;26823;42.662;23.352;2022-09-12T11:02:49;4.25;;;3.85;;
41077;SDS011;26823;42.662;23.352;2022-09-12T11:05:55;4.03;;;3.63;;
41077;SDS011;26823;42.662;23.352;2022-09-12T11:17:18;4.15;;;3.75;;
41077;SDS011;26823;42.662;23.352;2022-09-12T11:25:06;4.45;;;4.05;;
41077;SDS011;26823;42.662;23.352;2022-09-12T11:30:21;3.53;;;3.22;;
41077;SDS011;26823;42.662;23.352;2022-09-12T11:39:16;4.22;;;3.50;;
41077;SDS011;26823;42.662;23.352;2022-09-12T11:41:49;3.80;;;3.45;;
41077;SDS011;26823;42.662;23.352;2022-09-12T11:46:45;3.63;;;3.33;;
41077;SDS011;26823;42.662;23.352;2022-09-12T11:54:08;5.93;;;4.68;;
41077;SDS011;26823;42.662;23.352;2022-09-12T11:56:40;4.00;;;3.60;;
41077;SDS011;26823;42.662;23.352;2022-09-12T11:59:16;4.22;;;3.83;;
41077;SDS011;26823;42.662;23.352;2022-09-12T12:01:53;4.28;;;3.88;;
41077;SDS011;26823;42.662;23.352;2022-09-12T12:04:42;4.50;;;4.10;;
41077;SDS011;26823;42.662;23.352;2022-09-12T12:07:23;5.30;;;4.57;;
41077;SDS011;26823;42.662;23.352;2022-09-12T12:09:50;4.38;;;3.97;;
41077;SDS011;26823;42.662;23.352;2022-09-12T12:12:21;3.72;;;3.40;;
41077;SDS011;26823;42.662;23.352;2022-09-12T12:14:52;3.80;;;3.50;;
41077;SDS011;26823;42.662;23.352;2022-09-12T12:17:21;4.40;;;3.95;;
41077;SDS011;26823;42.662;23.352;2022-09-12T12:20:03;3.35;;;3.05;;
41077;SDS011;26823;42.662;23.352;2022-09-12T12:22:30;3.65;;;3.30;;
41077;SDS011;26823;42.662;23.352;2022-09-12T12:25:05;2.75;;;2.50;;
41077;SDS011;26823;42.662;23.352;2022-09-12T12:43:49;2.83;;;2.63;;
41077;SDS011;26823;42.662;23.352;2022-09-12T12:46:19;3.65;;;3.33;;
41077;SDS011;26823;42.662;23.352;2022-09-12T12:51:37;2.88;;;2.67;;
41077;SDS011;26823;42.662;23.352;2022-09-12T12:54:27;2.58;;;2.38;;
41077;SDS011;26823;42.662;23.352;2022-09-12T12:57:05;3.10;;;2.83;;
41077;SDS011;26823;42.662;23.352;2022-09-12T13:02:18;3.55;;;3.10;;
41077;SDS011;26823;42.662;23.352;2022-09-12T13:04:47;3.08;;;2.78;;
41077;SDS011;26823;42.662;23.352;2022-09-12T13:07:20;3.40;;;3.10;;
41077;SDS011;26823;42.662;23.352;2022-09-12T13:09:51;3.40;;;3.10;;
41077;SDS011;26823;42.662;23.352;2022-09-12T13:12:19;3.55;;;3.13;;
41077;SDS011;26823;42.662;23.352;2022-09-12T13:14:49;3.22;;;3.03;;
41077;SDS011;26823;42.662;23.352;2022-09-12T13:17:40;3.47;;;3.17;;
41077;SDS011;26823;42.662;23.352;2022-09-12T13:22:38;3.97;;;3.58;;
41077;SDS011;26823;42.662;23.352;2022-09-12T13:30:45;3.92;;;3.63;;
41077;SDS011;26823;42.662;23.352;2022-09-12T13:44:31;4.78;;;3.83;;
41077;SDS011;26823;42.662;23.352;2022-09-12T13:47:08;4.57;;;3.53;;
41077;SDS011;26823;42.662;23.352;2022-09-12T13:49:40;2.88;;;2.67;;
41077;SDS011;26823;42.662;23.352;2022-09-12T13:52:15;4.20;;;3.28;;
41077;SDS011;26823;42.662;23.352;2022-09-12T13:54:46;3.05;;;2.85;;
41077;SDS011;26823;42.662;23.352;2022-09-12T13:57:33;3.50;;;3.17;;
41077;SDS011;26823;42.662;23.352;2022-09-12T14:00:22;3.63;;;3.33;;
41077;SDS011;26823;42.662;23.352;2022-09-12T14:02:48;4.45;;;3.67;;
41077;SDS011;26823;42.662;23.352;2022-09-12T14:05:24;3.80;;;3.50;;
41077;SDS011;26823;42.662;23.352;2022-09-12T14:10:41;4.22;;;3.92;;
41077;SDS011;26823;42.662;23.352;2022-09-12T14:13:11;4.25;;;3.88;;
41077;SDS011;26823;42.662;23.352;2022-09-12T14:15:40;4.50;;;4.10;;
41077;SDS011;26823;42.662;23.352;2022-09-12T14:18:20;4.93;;;4.45;;
41077;SDS011;26823;42.662;23.352;2022-09-12T14:20:48;4.70;;;4.30;;
41077;SDS011;26823;42.662;23.352;2022-09-12T14:23:31;4.55;;;4.15;;
41077;SDS011;26823;42.662;23.352;2022-09-12T14:25:59;4.78;;;4.38;;
41077;SDS011;26823;42.662;23.352;2022-09-12T14:28:27;5.90;;;4.50;;
41077;SDS011;26823;42.662;23.352;2022-09-12T14:33:22;4.93;;;4.43;;
41077;SDS011;26823;42.662;23.352;2022-09-12T14:35:49;4.70;;;4.30;;
41077;SDS011;26823;42.662;23.352;2022-09-12T14:40:45;4.78;;;4.38;;
41077;SDS011;26823;42.662;23.352;2022-09-12T14:43:20;4.75;;;4.30;;
41077;SDS011;26823;42.662;23.352;2022-09-12T14:45:56;5.35;;;4.10;;
41077;SDS011;26823;42.662;23.352;2022-09-12T14:48:24;3.78;;;3.47;;
41077;SDS011;26823;42.662;23.352;2022-09-12T14:50:52;4.03;;;3.72;;
41077;SDS011;26823;42.662;23.352;2022-09-12T14:55:44;4.40;;;3.92;;
41077;SDS011;26823;42.662;23.352;2022-09-12T15:00:51;4.70;;;4.30;;
41077;SDS011;26823;42.662;23.352;2022-09-12T15:03:51;5.03;;;4.32;;
41077;SDS011;26823;42.662;23.352;2022-09-12T15:06:30;4.30;;;4.00;;
41077;SDS011;26823;42.662;23.352;2022-09-12T15:09:07;4.65;;;4.25;;
41077;SDS011;26823;42.662;23.352;2022-09-12T15:11:37;5.97;;;4.28;;
41077;SDS011;26823;42.662;23.352;2022-09-12T15:14:06;4.70;;;4.30;;
41077;SDS011;26823;42.662;23.352;2022-09-12T15:16:37;4.70;;;4.30;;
41077;SDS011;26823;42.662;23.352;2022-09-12T15:19:03;4.15;;;3.85;;
41077;SDS011;26823;42.662;23.352;2022-09-12T15:21:28;6.18;;;3.95;;
41077;SDS011;26823;42.662;23.352;2022-09-12T15:23:53;4.28;;;3.80;;
41077;SDS011;26823;42.662;23.352;2022-09-12T15:26:20;4.78;;;4.32;;
41077;SDS011;26823;42.662;23.352;2022-09-12T15:28:47;4.15;;;3.85;;
41077;SDS011;26823;42.662;23.352;2022-09-12T15:33:47;4.90;;;4.32;;
41077;SDS011;26823;42.662;23.352;2022-09-12T15:36:14;5.60;;;5.00;;
41077;SDS011;26823;42.662;23.352;2022-09-12T15:38:42;8.43;;;5.07;;
41077;SDS011;26823;42.662;23.352;2022-09-12T15:43:41;4.45;;;4.05;;
41077;SDS011;26823;42.662;23.352;2022-09-12T15:46:09;4.25;;;3.85;;
41077;SDS011;26823;42.662;23.352;2022-09-12T15:48:38;4.45;;;4.05;;
41077;SDS011;26823;42.662;23.352;2022-09-12T15:51:04;5.22;;;4.75;;
41077;SDS011;26823;42.662;23.352;2022-09-12T15:53:33;5.20;;;4.57;;
41077;SDS011;26823;42.662;23.352;2022-09-12T15:55:59;3.97;;;3.58;;
41077;SDS011;26823;42.662;23.352;2022-09-12T15:58:24;4.38;;;3.97;;
41077;SDS011;26823;42.662;23.352;2022-09-12T16:00:50;3.97;;;3.60;;
41077;SDS011;26823;42.662;23.352;2022-09-12T16:03:25;3.97;;;3.45;;
41077;SDS011;26823;42.662;23.352;2022-09-12T16:05:57;5.47;;;4.00;;
41077;SDS011;26823;42.662;23.352;2022-09-12T16:08:25;4.47;;;3.72;;
41077;SDS011;26823;42.662;23.352;2022-09-12T16:10:52;5.88;;;5.32;;
41077;SDS011;26823;42.662;23.352;2022-09-12T16:13:20;3.92;;;3.63;;
41077;SDS011;26823;42.662;23.352;2022-09-12T16:15:46;7.22;;;4.40;;
41077;SDS011;26823;42.662;23.352;2022-09-12T16:18:12;5.32;;;4.30;;
41077;SDS011;26823;42.662;23.352;2022-09-12T16:20:38;4.38;;;3.97;;
41077;SDS011;26823;42.662;23.352;2022-09-12T16:23:04;4.70;;;4.30;;
41077;SDS011;26823;42.662;23.352;2022-09-12T16:25:30;4.55;;;4.13;;
41077;SDS011;26823;42.662;23.352;2022-09-12T16:27:55;5.15;;;4.47;;
41077;SDS011;26823;42.662;23.352;2022-09-12T16:30:21;6.25;;;4.18;;
41077;SDS011;26823;42.662;23.352;2022-09-12T16:32:46;4.55;;;4.15;;
41077;SDS011;26823;42.662;23.352;2022-09-12T16:35:12;4.78;;;4.30;;
41077;SDS011;26823;42.662;23.352;2022-09-12T16:37:37;4.30;;;3.88;;
41077;SDS011;26823;42.662;23.352;2022-09-12T16:40:03;5.05;;;4.65;;
41077;SDS011;26823;42.662;23.352;2022-09-12T16:42:29;5.18;;;4.68;;
41077;SDS011;26823;42.662;23.352;2022-09-12T16:44:55;5.63;;;4.70;;
41077;SDS011;26823;42.662;23.352;2022-09-12T16:47:20;6.40;;;4.93;;
41077;SDS011;26823;42.662;23.352;2022-09-12T16:49:46;4.32;;;3.97;;
41077;SDS011;26823;42.662;23.352;2022-09-12T16:52:11;4.68;;;4.15;;
41077;SDS011;26823;42.662;23.352;2022-09-12T16:54:40;4.28;;;3.88;;
41077;SDS011;26823;42.662;23.352;2022-09-12T16:57:06;4.80;;;4.35;;
41077;SDS011;26823;42.662;23.352;2022-09-12T16:59:31;5.03;;;4.47;;
41077;SDS011;26823;42.662;23.352;2022-09-12T17:01:57;5.55;;;5.03;;
41077;SDS011;26823;42.662;23.352;2022-09-12T17:04:22;5.90;;;5.30;;
41077;SDS011;26823;42.662;23.352;2022-09-12T17:06:48;5.45;;;4.75;;
41077;SDS011;26823;42.662;23.352;2022-09-12T17:09:14;6.50;;;5.50;;
41077;SDS011;26823;42.662;23.352;2022-09-12T17:11:43;5.28;;;4.63;;
41077;SDS011;26823;42.662;23.352;2022-09-12T17:14:11;4.88;;;4.47;;
41077;SDS011;26823;42.662;23.352;2022-09-12T17:16:38;5.28;;;4.78;;
41077;SDS011;26823;42.662;23.352;2022-09-12T17:19:06;5.10;;;4.43;;
41077;SDS011;26823;42.662;23.352;2022-09-12T17:21:32;5.03;;;4.53;;
41077;SDS011;26823;42.662;23.352;2022-09-12T17:23:59;5.07;;;4.57;;
41077;SDS011;26823;42.662;23.352;2022-09-12T17:26:24;7.10;;;4.30;;
41077;SDS011;26823;42.662;23.352;2022-09-12T17:28:50;6.70;;;4.97;;
41077;SDS011;26823;42.662;23.352;2022-09-12T17:31:16;4.85;;;4.45;;
41077;SDS011;26823;42.662;23.352;2022-09-12T17:33:41;4.88;;;4.47;;
41077;SDS011;26823;42.662;23.352;2022-09-12T17:36:08;4.28;;;3.88;;
41077;SDS011;26823;42.662;23.352;2022-09-12T17:38:36;4.70;;;4.05;;